Bragado, Argentina
Current Conditions -  °F | °C
As of 6:00 PM on Friday 24 Oct 2014 (Local Time) from SAEZ Reporting Station
Scattered Clouds Scattered Clouds  
Wind Chill: 84°   Ceiling: Unl
Heat Index: 84°   Visibility: 6mi
Dew Point: 61°   Wind: 9mph
Humidity: 45%   Direction: 70°ENE
Pressure: 29.91"   Gusts: NA
Location:  35.12°S, 60.51°W
Report Text: SAEZ 242100Z 07008KT 9999 FEW050CB SCT100 SCT200 29/16 Q1013
Loading
Personal Weather Stations






























Interactive Weather Map
Tropical Storm Tracking
New forecast layout! Learn more

10-Day Weather Forecast

Advertisements
Track Severe Weather on mobile